createdAt,value
2017-10-14T00:01:48.374Z,7.71
2017-10-14T00:04:17.418Z,7.63
2017-10-14T00:06:46.495Z,7.62
2017-10-14T00:09:15.538Z,7.63
2017-10-14T00:11:44.586Z,7.64
2017-10-14T00:14:13.619Z,7.61
2017-10-14T00:16:42.664Z,7.57
2017-10-14T00:19:12.613Z,7.48
2017-10-14T00:21:41.677Z,7.38
2017-10-14T00:24:10.734Z,7.32
2017-10-14T00:26:39.763Z,7.19
2017-10-14T00:29:08.801Z,7.05
2017-10-14T00:31:37.845Z,6.93
2017-10-14T00:34:06.873Z,6.84
2017-10-14T00:36:35.973Z,6.78
2017-10-14T00:39:05.001Z,6.76
2017-10-14T00:41:34.026Z,6.70
2017-10-14T00:44:03.064Z,6.66
2017-10-14T00:46:32.115Z,6.66
2017-10-14T00:49:01.421Z,6.66
2017-10-14T00:51:30.437Z,6.72
2017-10-14T00:53:59.470Z,6.73
2017-10-14T00:56:28.520Z,6.76
2017-10-14T00:58:58.535Z,6.85
2017-10-14T01:01:27.742Z,6.98
2017-10-14T01:03:56.773Z,6.98
2017-10-14T01:06:25.803Z,7.01
2017-10-14T01:08:54.837Z,7.07
2017-10-14T01:11:23.944Z,7.17
2017-10-14T01:13:53.009Z,7.20
2017-10-14T01:16:22.035Z,7.23
2017-10-14T01:18:51.120Z,7.27
2017-10-14T01:21:20.159Z,7.33
2017-10-14T01:23:50.096Z,7.42
2017-10-14T01:26:19.149Z,7.52
2017-10-14T01:28:48.193Z,7.65
2017-10-14T01:31:17.289Z,7.66
2017-10-14T01:33:47.259Z,7.65
2017-10-14T01:36:16.289Z,7.66
2017-10-14T01:38:45.314Z,7.74
2017-10-14T01:41:14.354Z,7.80
2017-10-14T01:43:43.428Z,7.83
2017-10-14T01:46:12.456Z,7.83
2017-10-14T01:48:41.487Z,7.75
2017-10-14T01:51:10.537Z,7.66
2017-10-14T01:53:39.578Z,7.64
2017-10-14T01:56:08.611Z,7.67
2017-10-14T01:58:37.650Z,7.62
2017-10-14T02:01:06.678Z,7.55
2017-10-14T02:03:35.712Z,7.49
2017-10-14T02:06:04.767Z,7.45
2017-10-14T02:08:33.819Z,7.29
2017-10-14T02:11:02.849Z,7.13
2017-10-14T02:13:31.877Z,6.99
2017-10-14T02:16:00.971Z,6.84
2017-10-14T02:18:30.091Z,6.74
2017-10-14T02:20:59.138Z,6.65
2017-10-14T02:23:28.175Z,6.60
2017-10-14T02:25:57.206Z,6.58
2017-10-14T02:28:26.249Z,6.61
2017-10-14T02:30:55.301Z,6.63
2017-10-14T02:33:24.335Z,6.65
2017-10-14T02:35:54.346Z,6.62
2017-10-14T02:38:23.422Z,6.58
2017-10-14T02:40:52.446Z,6.57
2017-10-14T02:43:21.501Z,6.55
2017-10-14T02:45:50.527Z,6.57
2017-10-14T02:48:19.567Z,6.60
2017-10-14T02:50:48.621Z,6.59
2017-10-14T02:53:17.642Z,6.62
2017-10-14T02:55:46.715Z,6.63
2017-10-14T02:58:15.747Z,6.56
2017-10-14T03:00:44.806Z,6.52
2017-10-14T03:03:13.841Z,6.49
2017-10-14T03:05:42.864Z,6.48
2017-10-14T03:08:11.898Z,6.46
2017-10-14T03:10:41.653Z,6.47
2017-10-14T03:13:10.796Z,6.50
2017-10-14T03:15:39.814Z,6.55
2017-10-14T03:18:08.867Z,6.62
2017-10-14T03:20:37.920Z,6.66
2017-10-14T03:23:06.955Z,6.67
2017-10-14T03:25:35.992Z,6.76
2017-10-14T03:28:05.036Z,6.92
2017-10-14T03:30:34.095Z,6.99
2017-10-14T03:33:03.143Z,7.06
2017-10-14T03:35:32.190Z,7.11
2017-10-14T03:38:01.239Z,7.15
2017-10-14T03:40:30.302Z,7.13
2017-10-14T03:42:59.361Z,7.23
2017-10-14T03:45:28.423Z,7.29
2017-10-14T03:47:57.492Z,7.27
2017-10-14T03:50:26.531Z,7.23
2017-10-14T03:52:55.563Z,7.11
2017-10-14T03:55:25.542Z,7.02
2017-10-14T03:57:54.586Z,6.98
2017-10-14T04:00:23.838Z,6.92
2017-10-14T04:02:52.875Z,6.88
2017-10-14T04:05:22.022Z,6.81
2017-10-14T04:07:51.069Z,6.74
2017-10-14T04:10:20.144Z,6.67
2017-10-14T04:12:49.216Z,6.65
2017-10-14T04:15:18.267Z,6.66
2017-10-14T04:17:47.300Z,6.65
2017-10-14T04:20:16.343Z,6.59
2017-10-14T04:22:45.410Z,6.57
2017-10-14T04:25:14.443Z,6.57
2017-10-14T04:27:43.482Z,6.59
2017-10-14T04:30:12.512Z,6.59
2017-10-14T04:32:41.559Z,6.56
2017-10-14T04:35:10.607Z,6.55
2017-10-14T04:37:39.758Z,6.51
2017-10-14T04:40:08.827Z,6.49
2017-10-14T04:42:37.907Z,6.44
2017-10-14T04:45:06.918Z,6.37
2017-10-14T04:47:35.951Z,6.30
2017-10-14T04:50:05.016Z,6.25
2017-10-14T04:52:34.102Z,6.18
2017-10-14T04:55:03.218Z,6.15
2017-10-14T04:57:32.252Z,6.13
2017-10-14T05:00:01.331Z,6.13
2017-10-14T05:02:30.372Z,6.10
2017-10-14T05:05:00.339Z,6.11
2017-10-14T05:07:29.406Z,6.05
2017-10-14T05:09:58.442Z,5.96
2017-10-14T05:12:27.669Z,5.81
2017-10-14T05:14:58.062Z,5.71
2017-10-14T05:17:27.091Z,5.62
2017-10-14T05:19:56.126Z,5.56
2017-10-14T05:22:25.276Z,5.58
2017-10-14T05:24:54.314Z,5.51
2017-10-14T05:27:24.009Z,5.48
2017-10-14T05:29:53.050Z,5.52
2017-10-14T05:32:22.117Z,5.54
2017-10-14T05:34:51.169Z,5.59
2017-10-14T05:37:21.186Z,5.64
2017-10-14T05:39:50.238Z,5.68
2017-10-14T05:42:19.297Z,5.74
2017-10-14T05:44:48.327Z,5.83
2017-10-14T05:47:17.995Z,5.94
2017-10-14T05:49:47.975Z,6.00
2017-10-14T05:52:17.005Z,6.03
2017-10-14T05:54:46.066Z,6.08
2017-10-14T05:57:15.418Z,6.19
2017-10-14T05:59:44.636Z,6.29
2017-10-14T06:02:13.711Z,6.37
2017-10-14T06:04:42.963Z,6.39
2017-10-14T06:07:12.043Z,6.40
2017-10-14T06:09:41.081Z,6.38
2017-10-14T06:12:11.048Z,6.46
2017-10-14T06:14:40.134Z,6.60
2017-10-14T06:17:09.177Z,6.80
2017-10-14T06:19:38.229Z,6.91
2017-10-14T06:22:08.608Z,7.08
2017-10-14T06:24:37.622Z,7.19
2017-10-14T06:27:06.719Z,7.29
2017-10-14T06:29:35.793Z,7.42
2017-10-14T06:32:05.786Z,7.61
2017-10-14T06:34:34.830Z,7.89
2017-10-14T06:37:04.809Z,8.07
2017-10-14T06:39:33.866Z,8.16
2017-10-14T06:42:02.952Z,8.25
2017-10-14T06:44:32.007Z,8.34
2017-10-14T06:47:01.039Z,8.43
2017-10-14T06:49:30.083Z,8.50
2017-10-14T06:51:59.927Z,8.59
2017-10-14T06:54:29.004Z,8.71
2017-10-14T06:56:58.055Z,8.83
2017-10-14T06:59:27.111Z,8.91
2017-10-14T07:01:56.162Z,9.02
2017-10-14T07:04:25.278Z,9.16
2017-10-14T07:06:54.362Z,9.28
2017-10-14T07:09:23.403Z,9.41
2017-10-14T07:11:52.443Z,9.52
2017-10-14T07:14:21.796Z,9.67
2017-10-14T07:16:51.015Z,9.82
2017-10-14T07:19:21.831Z,9.99
2017-10-14T07:21:50.960Z,10.13
2017-10-14T07:24:20.006Z,10.28
2017-10-14T07:26:49.055Z,10.41
2017-10-14T07:29:18.120Z,10.53
2017-10-14T07:31:47.176Z,10.62
2017-10-14T07:34:16.227Z,10.70
2017-10-14T07:36:45.287Z,10.80
2017-10-14T07:39:14.346Z,10.93
2017-10-14T07:41:43.394Z,11.04
2017-10-14T07:44:12.469Z,11.15
2017-10-14T07:46:41.522Z,11.27
2017-10-14T07:49:10.712Z,11.41
2017-10-14T07:51:39.759Z,11.53
2017-10-14T07:54:08.795Z,11.63
2017-10-14T07:56:37.843Z,11.72
2017-10-14T07:59:06.875Z,11.81
2017-10-14T08:01:35.935Z,11.91
2017-10-14T08:04:04.979Z,12.08
2017-10-14T08:06:34.059Z,12.23
2017-10-14T08:09:03.130Z,12.36
2017-10-14T08:11:32.726Z,12.47
2017-10-14T08:14:08.631Z,12.57
2017-10-14T08:16:37.687Z,12.75
2017-10-14T08:19:06.738Z,12.91
2017-10-14T08:21:36.019Z,13.07
2017-10-14T08:24:05.064Z,13.28
2017-10-14T08:26:34.150Z,13.47
2017-10-14T08:29:03.198Z,13.64
2017-10-14T08:31:33.215Z,13.80
2017-10-14T08:34:03.237Z,13.95
2017-10-14T08:36:32.333Z,14.18
2017-10-14T08:39:01.355Z,14.36
2017-10-14T08:41:30.416Z,14.60
2017-10-14T08:43:59.444Z,14.99
2017-10-14T08:46:28.490Z,16.11
2017-10-14T08:48:57.547Z,18.09
2017-10-14T08:51:26.763Z,20.11
2017-10-14T08:53:56.057Z,21.95
2017-10-14T08:56:25.180Z,22.76
2017-10-14T08:58:54.197Z,24.11
2017-10-14T09:01:23.246Z,25.56
2017-10-14T09:03:52.298Z,26.87
2017-10-14T09:06:21.938Z,28.20
2017-10-14T09:08:50.982Z,29.50
2017-10-14T09:11:20.047Z,29.57
2017-10-14T09:13:49.104Z,29.51
2017-10-14T09:16:18.158Z,29.11
2017-10-14T09:18:47.258Z,29.55
2017-10-14T09:21:16.353Z,30.83
2017-10-14T09:23:45.444Z,31.40
2017-10-14T09:26:14.494Z,32.52
2017-10-14T09:28:43.652Z,32.95
2017-10-14T09:31:12.701Z,33.11
2017-10-14T09:33:41.760Z,34.15
2017-10-14T09:36:10.820Z,34.60
2017-10-14T09:38:39.867Z,35.47
2017-10-14T09:41:08.939Z,35.98
2017-10-14T09:43:38.012Z,36.31
2017-10-14T09:46:07.059Z,36.91
2017-10-14T09:48:36.109Z,37.39
2017-10-14T09:51:05.177Z,37.25
2017-10-14T09:53:34.229Z,37.73
2017-10-14T09:56:03.262Z,38.09
2017-10-14T09:58:32.352Z,38.11
2017-10-14T10:01:01.485Z,38.31
2017-10-14T10:03:30.726Z,38.54
2017-10-14T10:05:59.770Z,38.66
2017-10-14T10:08:28.819Z,38.27
2017-10-14T10:10:57.882Z,37.62
2017-10-14T10:13:26.971Z,37.80
2017-10-14T10:15:56.232Z,37.91
2017-10-14T10:18:25.422Z,38.56
2017-10-14T10:20:54.536Z,39.14
2017-10-14T10:23:23.579Z,39.35
2017-10-14T10:25:52.763Z,39.27
2017-10-14T10:28:24.751Z,39.40
2017-10-14T10:30:55.022Z,39.61
2017-10-14T10:33:24.125Z,38.94
2017-10-14T10:35:53.224Z,38.94
2017-10-14T10:38:22.279Z,38.83
2017-10-14T10:40:51.323Z,38.59
2017-10-14T10:43:20.392Z,38.96
2017-10-14T10:45:49.562Z,39.12
2017-10-14T10:48:18.645Z,38.63
2017-10-14T10:50:47.751Z,39.15
2017-10-14T10:53:17.874Z,39.72
2017-10-14T10:55:47.037Z,40.65
2017-10-14T10:58:16.206Z,41.18
2017-10-14T11:00:45.579Z,41.35
2017-10-14T11:03:15.068Z,41.57
2017-10-14T11:05:44.366Z,41.79
2017-10-14T11:08:13.454Z,41.48
2017-10-14T11:10:42.649Z,41.23
2017-10-14T11:13:11.951Z,41.61
2017-10-14T11:15:41.056Z,41.88
2017-10-14T11:18:10.490Z,42.21
2017-10-14T11:20:39.818Z,42.44
2017-10-14T11:23:08.902Z,42.59
2017-10-14T11:25:37.959Z,42.87
2017-10-14T11:28:07.280Z,41.51
2017-10-14T11:30:36.678Z,42.45
2017-10-14T11:33:05.967Z,42.09
2017-10-14T11:35:35.166Z,42.64
2017-10-14T11:38:04.220Z,41.34
2017-10-14T11:40:33.400Z,41.98
2017-10-14T11:43:03.001Z,41.91
2017-10-14T11:45:32.484Z,42.55
2017-10-14T11:48:01.587Z,42.64
2017-10-14T11:50:30.644Z,42.65
2017-10-14T11:52:59.912Z,42.06
2017-10-14T11:55:28.947Z,42.16
2017-10-14T11:57:58.074Z,42.64
2017-10-14T12:00:27.125Z,43.05
2017-10-14T12:02:56.223Z,43.22
2017-10-14T12:05:25.410Z,42.68
2017-10-14T12:07:54.446Z,42.38
2017-10-14T12:10:23.947Z,42.70
2017-10-14T12:12:53.089Z,42.79
2017-10-14T12:15:22.290Z,42.84
2017-10-14T12:17:51.332Z,42.85
2017-10-14T12:20:20.385Z,42.23
2017-10-14T12:22:49.430Z,41.74
2017-10-14T12:25:20.897Z,40.80
2017-10-14T12:27:53.737Z,41.47
2017-10-14T12:30:23.024Z,41.80
2017-10-14T12:32:52.473Z,41.89
2017-10-14T12:35:21.516Z,42.45
2017-10-14T12:37:50.871Z,42.71
2017-10-14T12:40:20.761Z,42.59
2017-10-14T12:42:49.915Z,42.71
2017-10-14T12:45:20.231Z,42.69
2017-10-14T12:47:49.287Z,42.22
2017-10-14T12:50:18.590Z,41.57
2017-10-14T12:52:47.622Z,41.42
2017-10-14T12:55:16.680Z,41.19
2017-10-14T12:57:45.739Z,41.63
2017-10-14T13:00:14.790Z,41.25
2017-10-14T13:02:43.847Z,41.02
2017-10-14T13:05:12.946Z,41.46
2017-10-14T13:07:41.990Z,41.59
2017-10-14T13:10:11.115Z,41.63
2017-10-14T13:12:40.175Z,41.58
2017-10-14T13:15:09.219Z,41.17
2017-10-14T13:17:38.298Z,40.70
2017-10-14T13:20:07.349Z,39.79
2017-10-14T13:22:36.454Z,40.71
2017-10-14T13:25:05.527Z,40.05
2017-10-14T13:27:34.593Z,40.30
2017-10-14T13:30:06.164Z,39.55
2017-10-14T13:32:35.231Z,39.77
2017-10-14T13:35:04.284Z,40.01
2017-10-14T13:37:33.645Z,40.06
2017-10-14T13:40:02.666Z,39.72
2017-10-14T13:42:31.953Z,40.44
2017-10-14T13:45:01.320Z,40.88
2017-10-14T13:47:30.560Z,41.05
2017-10-14T13:50:00.494Z,40.53
2017-10-14T13:52:29.708Z,40.61
2017-10-14T13:54:59.171Z,40.22
2017-10-14T13:57:28.400Z,39.56
2017-10-14T13:59:57.447Z,39.70
2017-10-14T14:02:26.634Z,39.61
2017-10-14T14:04:55.988Z,38.95
2017-10-14T14:07:25.047Z,39.60
2017-10-14T14:09:54.111Z,39.83
2017-10-14T14:12:23.328Z,39.69
2017-10-14T14:14:53.089Z,39.96
2017-10-14T14:17:22.505Z,39.20
2017-10-14T14:19:51.707Z,38.77
2017-10-14T14:22:20.739Z,37.84
2017-10-14T14:24:49.816Z,37.81
2017-10-14T14:27:18.852Z,38.18
2017-10-14T14:29:47.903Z,38.31
2017-10-14T14:32:16.979Z,38.26
2017-10-14T14:34:46.073Z,37.96
2017-10-14T14:37:16.163Z,37.29
2017-10-14T14:39:45.259Z,37.05
2017-10-14T14:42:14.539Z,36.95
2017-10-14T14:44:43.729Z,36.30
2017-10-14T14:47:12.807Z,36.57
2017-10-14T14:49:41.851Z,36.55
2017-10-14T14:52:10.891Z,35.59
2017-10-14T14:54:39.954Z,35.54
2017-10-14T14:57:09.020Z,35.19
2017-10-14T14:59:38.166Z,35.13
2017-10-14T15:02:07.208Z,34.52
2017-10-14T15:04:36.259Z,34.35
2017-10-14T15:07:05.391Z,33.91
2017-10-14T15:09:34.637Z,33.36
2017-10-14T15:12:03.710Z,32.01
2017-10-14T15:14:32.760Z,30.70
2017-10-14T15:17:01.984Z,29.55
2017-10-14T15:19:31.067Z,28.36
2017-10-14T15:22:00.227Z,27.70
2017-10-14T15:24:29.263Z,27.09
2017-10-14T15:26:58.306Z,26.59
2017-10-14T15:29:27.495Z,26.02
2017-10-14T15:31:56.645Z,25.51
2017-10-14T15:34:25.702Z,25.22
2017-10-14T15:36:54.759Z,24.77
2017-10-14T15:39:24.162Z,24.56
2017-10-14T15:41:53.528Z,24.29
2017-10-14T15:44:22.584Z,23.82
2017-10-14T15:46:51.852Z,23.55
2017-10-14T15:49:20.940Z,23.19
2017-10-14T15:51:50.092Z,22.76
2017-10-14T15:54:19.152Z,22.36
2017-10-14T15:56:48.260Z,21.96
2017-10-14T15:59:17.338Z,21.52
2017-10-14T16:01:46.428Z,21.17
2017-10-14T16:04:15.481Z,20.78
2017-10-14T16:06:44.675Z,20.40
2017-10-14T16:09:13.975Z,20.05
2017-10-14T16:11:43.074Z,19.72
2017-10-14T16:14:12.138Z,19.42
2017-10-14T16:16:41.332Z,19.11
2017-10-14T16:19:10.555Z,18.86
2017-10-14T16:21:39.598Z,18.61
2017-10-14T16:24:08.639Z,18.35
2017-10-14T16:26:41.311Z,18.14
2017-10-14T16:29:10.399Z,17.88
2017-10-14T16:31:42.099Z,17.59
2017-10-14T16:34:11.626Z,17.22
2017-10-14T16:36:40.811Z,16.93
2017-10-14T16:39:09.848Z,16.65
2017-10-14T16:41:39.019Z,16.43
2017-10-14T16:44:08.094Z,16.21
2017-10-14T16:46:38.023Z,16.03
2017-10-14T16:49:07.059Z,15.78
2017-10-14T16:51:36.120Z,15.61
2017-10-14T16:54:05.508Z,15.42
2017-10-14T16:56:34.570Z,15.25
2017-10-14T16:59:03.683Z,15.07
2017-10-14T17:01:32.767Z,14.91
2017-10-14T17:04:01.824Z,14.77
2017-10-14T17:06:31.042Z,14.67
2017-10-14T17:09:01.079Z,14.58
2017-10-14T17:11:30.103Z,14.45
2017-10-14T17:13:59.159Z,14.35
2017-10-14T17:16:29.211Z,14.24
2017-10-14T17:18:58.298Z,14.13
2017-10-14T17:21:27.328Z,14.05
2017-10-14T17:23:56.391Z,14.01
2017-10-14T17:26:25.443Z,13.85
2017-10-14T17:28:54.509Z,13.71
2017-10-14T17:31:23.581Z,13.62
2017-10-14T17:33:52.627Z,13.56
2017-10-14T17:36:21.674Z,13.47
2017-10-14T17:38:50.718Z,13.34
2017-10-14T17:41:19.782Z,13.28
2017-10-14T17:43:50.368Z,13.21
2017-10-14T17:46:19.419Z,13.11
2017-10-14T17:48:48.462Z,12.99
2017-10-14T17:51:17.511Z,12.89
2017-10-14T17:53:46.558Z,12.81
2017-10-14T17:56:15.619Z,12.74
2017-10-14T17:58:44.659Z,12.68
2017-10-14T18:01:13.703Z,12.57
2017-10-14T18:03:42.784Z,12.50
2017-10-14T18:06:11.831Z,12.42
2017-10-14T18:08:40.987Z,12.34
2017-10-14T18:11:10.127Z,12.24
2017-10-14T18:13:39.190Z,12.14
2017-10-14T18:16:08.243Z,12.08
2017-10-14T18:18:37.288Z,12.03
2017-10-14T18:21:06.342Z,11.98
2017-10-14T18:23:35.466Z,11.99
2017-10-14T18:26:04.706Z,11.92
2017-10-14T18:28:33.755Z,11.85
2017-10-14T18:31:02.812Z,11.82
2017-10-14T18:33:31.873Z,11.83
2017-10-14T18:36:00.991Z,11.80
2017-10-14T18:38:30.349Z,11.77
2017-10-14T18:40:59.387Z,11.72
2017-10-14T18:43:28.439Z,11.59
2017-10-14T18:45:57.479Z,11.53
2017-10-14T18:48:27.645Z,11.45
2017-10-14T18:50:56.810Z,11.39
2017-10-14T18:53:25.838Z,11.28
2017-10-14T18:55:55.938Z,11.21
2017-10-14T18:58:25.116Z,11.15
2017-10-14T19:00:54.344Z,11.08
2017-10-14T19:03:23.426Z,11.04
2017-10-14T19:05:52.636Z,10.97
2017-10-14T19:08:22.363Z,10.97
2017-10-14T19:10:51.539Z,10.93
2017-10-14T19:13:20.761Z,10.84
2017-10-14T19:15:50.338Z,10.77
2017-10-14T19:18:19.547Z,10.72
2017-10-14T19:20:48.602Z,10.67
2017-10-14T19:23:17.650Z,10.62
2017-10-14T19:25:46.711Z,10.59
2017-10-14T19:28:15.782Z,10.55
2017-10-14T19:30:44.824Z,10.51
2017-10-14T19:33:14.124Z,10.48
2017-10-14T19:35:48.215Z,10.43
2017-10-14T19:38:18.383Z,10.36
2017-10-14T19:40:49.757Z,10.32
2017-10-14T19:43:19.621Z,10.30
2017-10-14T19:45:50.317Z,10.28
2017-10-14T19:48:21.495Z,10.24
2017-10-14T19:50:54.955Z,10.17
2017-10-14T19:53:29.990Z,10.13
2017-10-14T19:56:05.560Z,10.07
2017-10-14T19:58:40.477Z,10.04
2017-10-14T20:01:09.831Z,9.95
2017-10-14T20:03:44.606Z,9.87
2017-10-14T20:06:19.074Z,9.81
2017-10-14T20:08:53.295Z,9.78
2017-10-14T20:11:27.785Z,9.77
2017-10-14T20:14:03.081Z,9.78
2017-10-14T20:16:37.080Z,9.73
2017-10-14T20:19:09.227Z,9.66
2017-10-14T20:21:42.328Z,9.63
2017-10-14T20:24:16.404Z,9.57
2017-10-14T20:26:50.813Z,9.54
2017-10-14T20:29:22.608Z,9.61
2017-10-14T20:31:57.881Z,9.61
2017-10-14T20:34:32.995Z,9.58
2017-10-14T20:37:07.142Z,9.54
2017-10-14T20:39:42.382Z,9.55
2017-10-14T20:42:17.635Z,9.49
2017-10-14T20:44:49.650Z,9.39
2017-10-14T20:47:18.718Z,9.31
2017-10-14T20:49:49.441Z,9.24
2017-10-14T20:52:24.288Z,9.19
2017-10-14T20:54:54.788Z,9.16
2017-10-14T20:57:28.954Z,9.13
2017-10-14T21:00:02.509Z,9.11
2017-10-14T21:02:38.481Z,9.10
2017-10-14T21:05:12.914Z,9.10
2017-10-14T21:07:43.976Z,9.11
2017-10-14T21:10:18.225Z,9.08
2017-10-14T21:12:53.220Z,9.07
2017-10-14T21:15:28.938Z,9.07
2017-10-14T21:18:03.324Z,9.07
2017-10-14T21:20:37.574Z,9.00
2017-10-14T21:23:09.522Z,8.88
2017-10-14T21:25:44.205Z,8.75
2017-10-14T21:28:17.708Z,8.68
2017-10-14T21:30:52.128Z,8.56
2017-10-14T21:33:27.096Z,8.47
2017-10-14T21:36:02.738Z,8.36
2017-10-14T21:38:31.925Z,8.36
2017-10-14T21:41:01.585Z,8.37
2017-10-14T21:43:30.810Z,8.47
2017-10-14T21:46:00.056Z,8.38
2017-10-14T21:48:29.202Z,8.30
2017-10-14T21:50:58.395Z,8.24
2017-10-14T21:53:28.329Z,8.19
2017-10-14T21:56:03.404Z,8.31
2017-10-14T21:58:38.305Z,8.43
2017-10-14T22:01:08.035Z,8.40
2017-10-14T22:03:38.030Z,8.37
2017-10-14T22:06:07.059Z,8.37
2017-10-14T22:08:36.128Z,8.33
2017-10-14T22:11:05.214Z,8.29
2017-10-14T22:13:34.308Z,8.24
2017-10-14T22:16:03.444Z,8.21
2017-10-14T22:18:32.611Z,8.18
2017-10-14T22:21:02.658Z,8.13
2017-10-14T22:23:31.911Z,8.14
2017-10-14T22:26:01.078Z,8.14
2017-10-14T22:28:30.238Z,8.18
2017-10-14T22:30:59.630Z,8.17
2017-10-14T22:33:28.807Z,8.14
2017-10-14T22:35:59.649Z,8.13
2017-10-14T22:38:28.752Z,8.10
2017-10-14T22:40:57.798Z,8.09
2017-10-14T22:43:26.960Z,8.06
2017-10-14T22:45:56.405Z,7.99
2017-10-14T22:48:28.541Z,7.84
2017-10-14T22:50:58.702Z,7.79
2017-10-14T22:53:31.049Z,7.64
2017-10-14T22:56:00.286Z,7.53
2017-10-14T22:58:29.529Z,7.54
2017-10-14T23:00:58.708Z,7.40
2017-10-14T23:03:28.192Z,7.29
2017-10-14T23:05:59.492Z,7.24
2017-10-14T23:08:28.586Z,7.20
2017-10-14T23:10:58.325Z,7.19
2017-10-14T23:13:28.126Z,7.13
2017-10-14T23:15:57.263Z,7.12
2017-10-14T23:18:26.947Z,7.15
2017-10-14T23:20:55.976Z,7.10
2017-10-14T23:23:25.391Z,7.06
2017-10-14T23:25:56.411Z,7.09
2017-10-14T23:28:26.472Z,7.13
2017-10-14T23:30:55.512Z,7.11
2017-10-14T23:33:24.551Z,7.10
2017-10-14T23:35:53.648Z,7.11
2017-10-14T23:38:22.659Z,7.18
2017-10-14T23:40:51.692Z,7.18
2017-10-14T23:43:20.751Z,7.14
2017-10-14T23:45:49.789Z,7.09
2017-10-14T23:48:18.838Z,7.10
2017-10-14T23:50:47.907Z,7.08
2017-10-14T23:53:16.944Z,7.05
2017-10-14T23:55:45.998Z,7.04
2017-10-14T23:58:15.043Z,7.04
